Luxemburg, Wisconsin
Current Conditions -  °F | °C
As of 12:53 AM on Thursday 23 Oct 2014 (Local Time) from KGRB Reporting Station
Haze Haze  
Wind Chill: 37°   Ceiling: Unl
Heat Index: 37°   Visibility: 5mi
Dew Point: 35°   Wind: 3mph
Humidity: 93%   Direction: 170°S
Pressure: 30.23"   Gusts: NA
Location:  44.54°N, 87.7°W
Report Text: KGRB 230553Z AUTO 17003KT 5SM BR CLR 03/02 A3023 RMK AO2 SLP241 T00280017 10061 20017 401281017 56013
Loading
Personal Weather Stations






























Interactive Weather Map
Tropical Storm Tracking
New forecast layout! Learn more

10-Day Weather Forecast

Advertisements
Track Severe Weather on mobile